Time;durP1;ratioP1;P1;durP2;ratioP2;P2;SDS_P1;SDS_P2;PMS_P1;PMS_P2;Temp;Humidity;BMP_temperature;BMP_pressure;BME280_temperature;BME280_humidity;BME280_pressure;Samples;Min_cycle;Max_cycle;Signal;HPM_P1;HPM_P2
2022/08/10 00:01:17;;;;;;;7.32;5.32;;;;;;;25.03;100.00;101074.56;5095108;28;20024;-75
2022/08/10 00:04:03;;;;;;;7.47;5.07;;;;;;;25.12;100.00;101078.44;5094727;28;20038;-74
2022/08/10 00:06:53;;;;;;;7.22;4.85;;;;;;;24.94;100.00;101074.38;5093609;28;20063;-75
2022/08/10 00:09:39;;;;;;;5.88;4.72;;;;;;;24.94;100.00;101077.06;5094722;28;20028;-75
2022/08/10 00:12:25;;;;;;;5.47;4.85;;;;;;;24.98;100.00;101076.75;5094440;28;20111;-74
2022/08/10 00:15:16;;;;;;;5.00;4.50;;;;;;;24.87;100.00;101073.13;5094492;28;20020;-75
2022/08/10 00:18:01;;;;;;;8.38;4.72;;;;;;;24.79;100.00;101064.75;5079752;28;20452;-74
2022/08/10 00:20:47;;;;;;;6.43;4.80;;;;;;;25.14;100.00;101073.81;5095242;28;20043;-75
2022/08/10 00:23:34;;;;;;;6.68;4.60;;;;;;;25.01;100.00;101071.16;5094521;28;20027;-74
2022/08/10 00:26:20;;;;;;;5.68;4.68;;;;;;;24.81;100.00;101074.41;5079261;28;20032;-75
2022/08/10 00:29:06;;;;;;;6.32;4.70;;;;;;;24.81;100.00;101077.09;5094451;28;20089;-75
2022/08/10 00:31:51;;;;;;;5.30;4.80;;;;;;;24.54;100.00;101067.38;5094505;28;20470;-74
2022/08/10 00:34:37;;;;;;;8.63;4.70;;;;;;;24.75;100.00;101073.97;5092613;28;20371;-75
2022/08/10 00:37:23;;;;;;;6.68;4.53;;;;;;;24.69;100.00;101071.72;5095287;28;20035;-76
2022/08/10 00:40:09;;;;;;;7.10;4.57;;;;;;;24.86;100.00;101068.69;5094352;28;20058;-76
2022/08/10 00:42:55;;;;;;;8.63;4.50;;;;;;;24.95;100.00;101060.84;5094605;28;20364;-74
2022/08/10 00:45:41;;;;;;;7.28;5.05;;;;;;;24.87;100.00;101065.06;5094474;28;20020;-74
2022/08/10 00:48:28;;;;;;;6.60;4.70;;;;;;;24.70;100.00;101068.06;5094273;28;20035;-75
2022/08/10 00:51:14;;;;;;;5.90;4.18;;;;;;;24.81;100.00;101069.03;5079840;28;20024;-75
2022/08/10 00:54:00;;;;;;;8.45;4.85;;;;;;;24.67;100.00;101058.41;5097836;28;20448;-75
2022/08/10 00:56:46;;;;;;;7.57;4.68;;;;;;;24.42;100.00;101057.50;5099184;28;20027;-74
2022/08/10 00:59:33;;;;;;;6.90;4.72;;;;;;;24.58;100.00;101063.53;5099442;28;20024;-74
2022/08/10 01:02:18;;;;;;;6.70;4.65;;;;;;;24.80;100.00;101061.97;5083787;28;20031;-75
2022/08/10 01:05:08;;;;;;;7.43;5.00;;;;;;;24.84;100.00;101068.84;5098611;28;20120;-75
2022/08/10 01:08:12;;;;;;;6.20;4.50;;;;;;;24.86;100.00;101069.56;5099055;28;20059;-74
2022/08/10 01:11:07;;;;;;;7.93;4.80;;;;;;;24.82;100.00;101069.88;5097480;28;20050;-75
2022/08/10 01:14:03;;;;;;;5.97;4.30;;;;;;;24.47;100.00;101080.34;5099392;28;20055;-74
2022/08/10 01:16:55;;;;;;;7.70;5.35;;;;;;;24.47;100.00;101092.91;5099089;28;20474;-74
2022/08/10 01:19:59;;;;;;;10.10;5.10;;;;;;;23.68;100.00;101088.47;5100554;28;20020;-75
2022/08/10 01:22:57;;;;;;;8.95;5.03;;;;;;;23.75;100.00;101087.09;5099634;28;20020;-74
2022/08/10 01:26:26;;;;;;;11.68;5.32;;;;;;;24.00;100.00;101093.44;5085843;28;20451;-75
2022/08/10 01:29:45;;;;;;;18.13;6.88;;;;;;;23.94;100.00;101095.69;5099448;28;20051;-75
2022/08/10 01:32:49;;;;;;;19.00;7.05;;;;;;;23.84;100.00;101099.88;5084804;28;20020;-75
2022/08/10 01:36:07;;;;;;;12.48;5.70;;;;;;;23.64;100.00;101101.19;5098811;28;20397;-75
2022/08/10 01:38:55;;;;;;;13.75;5.40;;;;;;;23.69;100.00;101108.91;5084431;28;20074;-74
2022/08/10 01:41:44;;;;;;;12.35;5.47;;;;;;;23.43;100.00;101107.94;5098021;28;20119;-75
2022/08/10 01:44:33;;;;;;;14.52;5.60;;;;;;;23.47;100.00;101121.97;5082872;28;20024;-75
2022/08/10 01:50:35;;;;;;;8.82;5.32;;;;;;;23.75;100.00;101128.09;5097354;28;20046;-74
2022/08/10 01:53:25;;;;;;;11.45;5.95;;;;;;;23.38;100.00;101140.31;5095971;28;20020;-75
2022/08/10 01:56:14;;;;;;;10.50;5.35;;;;;;;23.39;100.00;101142.03;5097814;28;20335;-75
2022/08/10 01:59:18;;;;;;;12.90;5.57;;;;;;;23.77;100.00;101146.72;5096301;28;20027;-74
2022/08/10 02:02:22;;;;;;;12.98;6.15;;;;;;;23.92;100.00;101151.13;5097556;28;20085;-75
2022/08/10 02:05:10;;;;;;;11.20;5.75;;;;;;;24.16;100.00;101166.44;5096109;28;20024;-75
2022/08/10 02:07:58;;;;;;;12.95;6.07;;;;;;;24.38;100.00;101176.56;5082640;28;20060;-74
2022/08/10 02:10:46;;;;;;;12.52;5.47;;;;;;;24.18;100.00;101177.06;5096375;28;20036;-74
2022/08/10 02:13:33;;;;;;;17.42;7.43;;;;;;;23.82;100.00;101174.91;5097143;28;20106;-75
2022/08/10 02:16:20;;;;;;;16.60;6.40;;;;;;;23.48;100.00;101175.38;5096099;28;20061;-75
2022/08/10 02:19:08;;;;;;;16.30;6.50;;;;;;;23.80;100.00;101176.84;5097355;28;20036;-75
2022/08/10 02:21:56;;;;;;;15.57;6.00;;;;;;;23.83;100.00;101176.63;5097883;28;20025;-75
2022/08/10 02:24:43;;;;;;;10.48;5.95;;;;;;;23.91;100.00;101181.50;5096985;28;20024;-74
2022/08/10 02:27:32;;;;;;;6.72;5.03;;;;;;;24.24;100.00;101188.22;5097124;28;20024;-74
2022/08/10 02:30:18;;;;;;;7.80;4.78;;;;;;;24.45;100.00;101180.53;5081365;28;20016;-75
2022/08/10 02:33:05;;;;;;;8.48;4.78;;;;;;;24.44;100.00;101189.53;5096407;28;20024;-75
2022/08/10 02:35:53;;;;;;;8.63;4.60;;;;;;;24.39;100.00;101189.00;5096598;28;20032;-75
2022/08/10 02:38:49;;;;;;;7.10;4.72;;;;;;;24.43;100.00;101193.19;5096516;28;20422;-75
2022/08/10 02:41:40;;;;;;;8.63;4.22;;;;;;;24.29;100.00;101204.81;5096545;28;20066;-75
2022/08/10 02:44:32;;;;;;;7.07;4.03;;;;;;;24.29;100.00;101196.78;5096080;28;20380;-74
2022/08/10 02:47:28;;;;;;;5.10;3.80;;;;;;;24.20;100.00;101197.41;5095410;28;20111;-75
2022/08/10 02:50:27;;;;;;;5.10;3.63;;;;;;;24.42;100.00;101197.69;5081684;28;20440;-74
2022/08/10 02:53:21;;;;;;;6.15;3.88;;;;;;;24.14;100.00;101205.00;5095866;28;20020;-74
2022/08/10 02:56:22;;;;;;;5.55;3.90;;;;;;;24.28;100.00;101202.25;5096427;28;20024;-75
2022/08/10 02:59:23;;;;;;;6.45;4.50;;;;;;;24.10;100.00;101207.00;5094923;28;20452;-75
2022/08/10 03:02:19;;;;;;;5.07;3.75;;;;;;;23.87;100.00;101206.75;5095925;28;20152;-75
2022/08/10 03:05:09;;;;;;;4.72;3.58;;;;;;;24.13;100.00;101213.97;5095547;28;20028;-75
2022/08/10 03:08:04;;;;;;;5.05;3.80;;;;;;;24.00;100.00;101215.72;5093642;28;20027;-74
2022/08/10 03:10:52;;;;;;;6.22;3.92;;;;;;;24.13;100.00;101224.66;5095641;28;20364;-74
2022/08/10 03:13:38;;;;;;;5.50;3.70;;;;;;;24.23;100.00;101220.44;5096127;28;20119;-74
2022/08/10 03:16:26;;;;;;;8.25;3.47;;;;;;;23.97;100.00;101215.91;5095202;28;20096;-74
2022/08/10 03:19:13;;;;;;;7.10;3.65;;;;;;;24.19;100.00;101224.28;5080801;28;20126;-74
2022/08/10 03:22:00;;;;;;;5.68;3.92;;;;;;;24.09;100.00;101224.03;5095999;28;20043;-75
2022/08/10 03:24:47;;;;;;;3.78;3.42;;;;;;;24.22;100.00;101222.25;5096046;28;20043;-75
2022/08/10 03:27:33;;;;;;;5.60;3.60;;;;;;;24.08;100.00;101225.00;5095280;28;20028;-74
2022/08/10 03:30:19;;;;;;;4.15;3.65;;;;;;;24.10;100.00;101232.94;5095101;28;20024;-75
2022/08/10 03:33:06;;;;;;;3.92;3.50;;;;;;;23.92;100.00;101231.41;5095536;28;20347;-75
2022/08/10 03:35:52;;;;;;;4.03;3.58;;;;;;;24.15;100.00;101231.63;5093762;28;20167;-75
2022/08/10 03:38:39;;;;;;;5.15;3.40;;;;;;;24.47;100.00;101235.72;5094314;28;20348;-76
2022/08/10 03:41:40;;;;;;;4.05;3.58;;;;;;;24.30;100.00;101243.19;5094958;28;20038;-74
2022/08/10 03:44:30;;;;;;;5.45;3.80;;;;;;;24.35;100.00;101235.72;5095063;28;20032;-75
2022/08/10 03:47:18;;;;;;;6.10;3.70;;;;;;;24.16;100.00;101241.41;5095047;28;20100;-75
2022/08/10 03:50:05;;;;;;;4.28;3.30;;;;;;;24.04;100.00;101244.88;5094223;28;20031;-75
2022/08/10 03:52:52;;;;;;;4.13;3.50;;;;;;;24.09;100.00;101250.78;5078829;28;20016;-74
2022/08/10 03:55:39;;;;;;;4.13;3.50;;;;;;;24.40;100.00;101257.69;5094838;28;20044;-75
2022/08/10 03:58:25;;;;;;;7.82;3.50;;;;;;;24.46;100.00;101258.13;5080339;28;20102;-74
2022/08/10 04:01:13;;;;;;;6.70;3.42;;;;;;;24.48;100.00;101258.91;5079979;28;20028;-74
2022/08/10 04:03:59;;;;;;;6.20;3.47;;;;;;;24.40;100.00;101260.38;5094634;28;20086;-75
2022/08/10 04:06:45;;;;;;;5.50;4.05;;;;;;;24.39;100.00;101264.00;5093512;28;20375;-74
2022/08/10 04:09:34;;;;;;;7.63;3.25;;;;;;;24.48;100.00;101260.72;5094523;28;20020;-74
2022/08/10 04:12:19;;;;;;;8.88;5.30;;;;;;;24.59;100.00;101269.75;5093326;28;20051;-74
2022/08/10 04:15:06;;;;;;;6.43;5.05;;;;;;;24.79;100.00;101265.78;5094054;28;20024;-75
2022/08/10 04:17:51;;;;;;;5.70;3.67;;;;;;;24.79;100.00;101261.28;5094595;28;20059;-74
2022/08/10 04:20:47;;;;;;;7.40;3.40;;;;;;;24.73;100.00;101271.56;5095037;28;20035;-75
2022/08/10 04:23:36;;;;;;;8.07;3.17;;;;;;;24.59;100.00;101264.41;5094430;28;20032;-75
2022/08/10 04:26:23;;;;;;;4.15;3.30;;;;;;;24.77;100.00;101263.22;5094568;28;20020;-74
2022/08/10 04:29:09;;;;;;;4.43;3.08;;;;;;;24.78;100.00;101281.00;5094308;28;20054;-74
2022/08/10 04:31:55;;;;;;;10.27;3.15;;;;;;;24.82;100.00;101268.25;5094120;28;20031;-75
2022/08/10 04:34:43;;;;;;;10.27;3.47;;;;;;;24.75;100.00;101277.69;5094309;28;20028;-74
2022/08/10 04:37:29;;;;;;;7.22;3.60;;;;;;;24.91;100.00;101283.72;5093614;28;20123;-75
2022/08/10 04:40:17;;;;;;;6.88;4.07;;;;;;;24.98;100.00;101287.69;5094594;28;20356;-75
2022/08/10 04:43:05;;;;;;;7.20;3.17;;;;;;;24.85;100.00;101278.75;5094923;28;20103;-75
2022/08/10 04:45:51;;;;;;;5.55;3.22;;;;;;;24.64;100.00;101281.09;5093873;28;20028;-74
2022/08/10 04:48:37;;;;;;;9.20;3.10;;;;;;;24.84;100.00;101272.56;5094177;28;20050;-75
2022/08/10 04:51:23;;;;;;;4.78;3.05;;;;;;;24.75;100.00;101283.03;5081179;28;20428;-75
2022/08/10 04:54:09;;;;;;;7.03;3.30;;;;;;;25.05;100.00;101273.78;5071263;28;20052;-74
2022/08/10 04:56:54;;;;;;;15.48;3.97;;;;;;;24.97;100.00;101276.13;5074112;28;20025;-74
2022/08/10 04:59:40;;;;;;;3.88;3.33;;;;;;;24.69;100.00;101283.44;5074531;28;20063;-75
2022/08/10 05:02:26;;;;;;;4.68;3.25;;;;;;;24.94;100.00;101273.66;5074112;28;20087;-75
2022/08/10 05:05:12;;;;;;;8.50;3.60;;;;;;;25.16;100.00;101278.41;5072973;28;20448;-73
2022/08/10 05:07:58;;;;;;;7.20;4.53;;;;;;;25.43;100.00;101285.44;5072799;28;20029;-75
2022/08/10 05:10:43;;;;;;;6.10;4.00;;;;;;;25.03;100.00;101274.84;5058889;28;20056;-74
2022/08/10 05:13:29;;;;;;;5.35;4.20;;;;;;;25.55;100.00;101284.56;5073885;28;20027;-75
2022/08/10 05:16:15;;;;;;;6.45;3.72;;;;;;;24.93;100.00;101279.09;5074185;28;20040;-74
2022/08/10 05:19:01;;;;;;;5.30;3.75;;;;;;;24.39;100.00;101283.59;5073234;28;20028;-75
2022/08/10 05:21:46;;;;;;;7.75;3.83;;;;;;;25.12;100.00;101288.47;5074109;28;20089;-75
2022/08/10 05:24:32;;;;;;;6.72;3.78;;;;;;;25.46;100.00;101287.03;5072966;28;20115;-75
2022/08/10 05:27:18;;;;;;;4.85;4.03;;;;;;;24.95;100.00;101280.72;5074193;28;20497;-75
2022/08/10 05:30:07;;;;;;;6.28;4.82;;;;;;;24.44;100.00;101286.00;5059346;28;20028;-75
2022/08/10 05:32:53;;;;;;;5.72;4.35;;;;;;;24.99;100.00;101284.91;5059054;28;20024;-73
2022/08/10 05:35:39;;;;;;;5.55;4.45;;;;;;;24.35;100.00;101291.97;5073298;28;20040;-74
2022/08/10 05:38:25;;;;;;;6.85;4.53;;;;;;;24.01;100.00;101287.91;5075112;28;20028;-74
2022/08/10 05:41:13;;;;;;;6.55;4.68;;;;;;;24.17;100.00;101290.47;5062456;28;20024;-74
2022/08/10 05:43:59;;;;;;;6.78;4.78;;;;;;;24.12;100.00;101287.22;5077350;28;20480;-75
2022/08/10 05:46:44;;;;;;;7.95;4.80;;;;;;;24.31;100.00;101287.75;5077283;28;20118;-75
2022/08/10 05:49:30;;;;;;;7.30;4.65;;;;;;;24.27;100.00;101296.97;5063142;28;20043;-75
2022/08/10 05:52:19;;;;;;;6.00;4.45;;;;;;;24.48;100.00;101277.66;5077080;28;20024;-76
2022/08/10 05:55:06;;;;;;;8.05;5.07;;;;;;;25.19;100.00;101284.41;5092257;28;20127;-76
2022/08/10 05:57:52;;;;;;;7.97;5.00;;;;;;;24.75;100.00;101277.69;5098801;28;20043;-75
2022/08/10 06:00:40;;;;;;;6.80;4.28;;;;;;;24.80;100.00;101286.28;5083393;28;20423;-75
2022/08/10 06:03:33;;;;;;;7.35;4.57;;;;;;;25.49;100.00;101287.69;5082614;28;20024;-75
2022/08/10 06:06:20;;;;;;;7.00;4.93;;;;;;;25.50;100.00;101285.84;5082593;28;20040;-75
2022/08/10 06:09:07;;;;;;;7.28;4.85;;;;;;;25.10;100.00;101285.03;5081865;28;20089;-75
2022/08/10 06:11:54;;;;;;;7.25;4.60;;;;;;;25.22;100.00;101280.66;5096613;28;20028;-75
2022/08/10 06:15:00;;;;;;;9.93;5.40;;;;;;;25.86;100.00;101291.31;5082080;28;20035;-74
2022/08/10 06:17:47;;;;;;;10.95;5.30;;;;;;;25.99;100.00;101282.28;5097177;28;20038;-75
2022/08/10 06:20:33;;;;;;;12.18;5.60;;;;;;;26.12;100.00;101283.09;5082841;28;20116;-75
2022/08/10 06:23:19;;;;;;;10.32;5.43;;;;;;;25.91;100.00;101281.09;5096209;28;20024;-75
2022/08/10 06:26:06;;;;;;;13.93;5.60;;;;;;;25.61;100.00;101288.66;5097187;28;20028;-75
2022/08/10 06:29:13;;;;;;;7.32;4.63;;;;;;;26.14;100.00;101296.44;5097067;28;20028;-76
2022/08/10 06:32:00;;;;;;;5.35;4.35;;;;;;;25.87;100.00;101291.19;5095261;28;20107;-74
2022/08/10 06:34:49;;;;;;;8.38;4.55;;;;;;;26.13;100.00;101286.66;5096915;28;20059;-75
2022/08/10 06:37:37;;;;;;;7.05;4.65;;;;;;;25.94;100.00;101284.47;5096180;28;20031;-75
2022/08/10 06:40:31;;;;;;;11.00;4.68;;;;;;;26.20;100.00;101279.88;5097508;28;20027;-75
2022/08/10 06:43:21;;;;;;;15.30;5.78;;;;;;;26.24;100.00;101290.28;5096059;28;20031;-74
2022/08/10 06:46:14;;;;;;;12.48;5.35;;;;;;;26.65;100.00;101277.34;5081951;28;20024;-74
2022/08/10 06:49:03;;;;;;;6.65;5.05;;;;;;;26.98;100.00;101285.56;5096035;28;20049;-74
2022/08/10 06:51:56;;;;;;;12.18;5.57;;;;;;;26.28;100.00;101286.41;5095489;28;20028;-75
2022/08/10 06:54:43;;;;;;;11.18;5.20;;;;;;;26.03;100.00;101277.53;5069305;28;20059;-74
2022/08/10 06:57:32;;;;;;;8.32;4.90;;;;;;;26.11;100.00;101293.97;5075609;28;20376;-74
2022/08/10 07:00:18;;;;;;;10.73;4.95;;;;;;;26.04;100.00;101284.66;5075640;28;20028;-75
2022/08/10 07:03:09;;;;;;;9.52;4.93;;;;;;;26.10;100.00;101292.25;5060841;28;20361;-75
2022/08/10 07:05:56;;;;;;;7.90;5.05;;;;;;;25.86;100.00;101288.63;5075406;28;20155;-74
2022/08/10 07:08:44;;;;;;;6.45;4.78;;;;;;;26.27;100.00;101297.25;5075181;28;20052;-73
2022/08/10 07:11:31;;;;;;;10.23;4.60;;;;;;;26.42;100.00;101282.69;5075233;28;20032;-74
2022/08/10 07:14:18;;;;;;;7.20;5.30;;;;;;;26.46;100.00;101282.38;5075456;28;20024;-75
2022/08/10 07:17:06;;;;;;;16.50;5.40;;;;;;;26.68;100.00;101284.34;5074084;28;20020;-74
2022/08/10 07:19:55;;;;;;;7.75;4.50;;;;;;;26.37;100.00;101271.44;5074597;28;20102;-74
2022/08/10 07:22:42;;;;;;;5.78;4.45;;;;;;;26.59;100.00;101287.69;5074737;28;20094;-75
2022/08/10 07:25:33;;;;;;;7.85;4.50;;;;;;;26.73;100.00;101291.06;5075760;28;20043;-76
2022/08/10 07:28:20;;;;;;;5.55;4.50;;;;;;;26.26;100.00;101293.72;5074270;28;20028;-75
2022/08/10 07:31:06;;;;;;;5.85;4.22;;;;;;;26.89;100.00;101272.78;5074812;28;20099;-75
2022/08/10 07:33:54;;;;;;;8.75;4.70;;;;;;;27.28;100.00;101276.97;5074271;28;20052;-74
2022/08/10 07:36:42;;;;;;;9.07;4.43;;;;;;;27.22;100.00;101282.84;5074272;28;20117;-74
2022/08/10 07:39:37;;;;;;;9.45;4.70;;;;;;;27.23;100.00;101285.41;5075502;28;20453;-75
2022/08/10 07:42:39;;;;;;;7.30;4.60;;;;;;;26.96;100.00;101281.25;5060195;28;20028;-76
2022/08/10 07:45:30;;;;;;;12.25;4.82;;;;;;;26.88;100.00;101281.00;5074364;28;20035;-75
2022/08/10 07:48:21;;;;;;;13.70;5.10;;;;;;;26.78;100.00;101296.09;5074480;28;20024;-75
2022/08/10 07:51:11;;;;;;;10.25;5.50;;;;;;;27.07;100.00;101286.69;5074596;28;20052;-75
2022/08/10 07:54:00;;;;;;;10.48;5.43;;;;;;;27.32;100.00;101289.22;5080838;28;20046;-74
2022/08/10 07:56:49;;;;;;;10.95;5.40;;;;;;;27.30;100.00;101288.50;5080195;28;20028;-74
2022/08/10 07:59:38;;;;;;;12.05;5.30;;;;;;;27.29;100.00;101279.56;5095441;28;20043;-75
2022/08/10 08:02:33;;;;;;;12.35;4.85;;;;;;;27.66;100.00;101282.91;5094235;28;20043;-75
2022/08/10 08:05:32;;;;;;;10.07;4.68;;;;;;;27.67;100.00;101281.91;5080775;28;20031;-75
2022/08/10 08:08:20;;;;;;;8.27;4.10;;;;;;;28.11;100.00;101279.25;5094688;28;20085;-75
2022/08/10 08:11:10;;;;;;;5.78;3.97;;;;;;;28.22;97.04;101278.38;5095127;28;20031;-75
2022/08/10 08:13:59;;;;;;;8.38;4.30;;;;;;;28.40;92.71;101291.19;5094541;28;20570;-71
2022/08/10 08:16:49;;;;;;;10.43;4.15;;;;;;;28.04;94.59;101267.25;5079936;28;20177;-75
2022/08/10 08:19:36;;;;;;;6.90;3.88;;;;;;;27.74;93.88;101269.69;5094540;28;20105;-75
2022/08/10 08:22:23;;;;;;;7.20;4.10;;;;;;;28.51;90.86;101269.63;5094063;28;20429;-74
2022/08/10 08:25:10;;;;;;;10.60;3.75;;;;;;;28.64;92.04;101270.31;5094459;28;20109;-76
2022/08/10 08:28:00;;;;;;;9.05;3.80;;;;;;;29.28;89.18;101276.50;5093973;28;20394;-76
2022/08/10 08:30:46;;;;;;;8.02;3.50;;;;;;;28.28;90.74;101267.09;5094480;28;20028;-75
2022/08/10 08:33:34;;;;;;;5.82;3.60;;;;;;;28.38;90.15;101273.44;5094793;28;20020;-75
2022/08/10 08:36:21;;;;;;;6.50;3.60;;;;;;;29.67;84.30;101271.25;5094002;28;20078;-75
2022/08/10 08:39:07;;;;;;;7.82;4.00;;;;;;;30.59;80.09;101290.75;5078481;28;20024;-76
2022/08/10 08:42:07;;;;;;;8.52;3.67;;;;;;;28.85;84.65;101276.59;5094834;28;20051;-75
2022/08/10 08:45:06;;;;;;;7.55;3.63;;;;;;;28.45;87.84;101269.28;5094967;28;20032;-75
2022/08/10 08:48:15;;;;;;;9.20;3.65;;;;;;;29.08;85.78;101267.44;5092096;28;20024;-74
2022/08/10 08:51:32;;;;;;;11.57;3.95;;;;;;;29.79;78.74;101278.28;5094129;28;20102;-76
2022/08/10 08:54:32;;;;;;;10.90;3.58;;;;;;;29.60;76.24;101277.31;5094039;28;20055;-74
2022/08/10 08:58:02;;;;;;;9.00;3.30;;;;;;;28.34;84.10;101269.28;5081669;28;20024;-75
2022/08/10 09:01:46;;;;;;;8.98;3.45;;;;;;;29.47;79.45;101268.53;5093757;28;20099;-74
2022/08/10 09:04:56;;;;;;;11.60;3.97;;;;;;;29.95;76.23;101275.91;4994288;28;20137;-75
2022/08/10 09:07:57;;;;;;;6.38;2.90;;;;;;;29.59;76.97;101270.19;4992365;28;20034;-75
2022/08/10 09:10:51;;;;;;;11.18;3.42;;;;;;;28.10;83.95;101265.91;5095064;28;20040;-75
2022/08/10 09:14:10;;;;;;;5.03;3.47;;;;;;;28.45;82.60;101272.81;5095680;28;20035;-75
2022/08/10 09:17:09;;;;;;;10.18;3.38;;;;;;;28.52;81.55;101267.81;5098256;28;20023;-75
2022/08/10 09:20:07;;;;;;;6.68;3.63;;;;;;;28.99;78.95;101262.81;5097825;28;20028;-75
2022/08/10 09:23:02;;;;;;;11.85;3.50;;;;;;;29.06;79.08;101255.94;5098173;28;20380;-74
2022/08/10 09:25:54;;;;;;;7.28;3.50;;;;;;;29.56;77.48;101256.91;5097808;28;20027;-74
2022/08/10 09:28:42;;;;;;;11.20;3.60;;;;;;;29.60;78.01;101258.38;5098403;28;20032;-75
2022/08/10 09:31:34;;;;;;;9.40;3.60;;;;;;;30.34;75.61;101257.97;5097953;28;20028;-74
2022/08/10 09:34:51;;;;;;;7.53;3.17;;;;;;;30.22;75.33;101262.63;5097494;28;20023;-73
2022/08/10 09:37:50;;;;;;;8.40;3.72;;;;;;;30.17;72.18;101266.75;5095217;28;20036;-75
2022/08/10 09:40:48;;;;;;;7.15;3.97;;;;;;;29.96;69.00;101264.09;5098861;28;20028;-74
2022/08/10 09:43:37;;;;;;;5.82;3.80;;;;;;;29.95;70.57;101265.09;5097335;28;20036;-74
2022/08/10 09:47:00;;;;;;;6.93;3.97;;;;;;;29.77;68.72;101274.00;5097848;28;20081;-75
2022/08/10 09:49:52;;;;;;;9.75;3.95;;;;;;;30.14;69.68;101262.47;5098638;28;20054;-74
2022/08/10 09:53:18;;;;;;;7.35;3.33;;;;;;;29.42;73.40;101266.25;5098651;28;20038;-75
2022/08/10 09:56:41;;;;;;;6.38;3.20;;;;;;;28.76;74.84;101258.50;5097754;28;20043;-75
2022/08/10 09:59:40;;;;;;;5.78;3.00;;;;;;;29.48;73.12;101264.84;5098088;28;20512;-76
2022/08/10 10:02:59;;;;;;;4.93;3.30;;;;;;;29.98;69.64;101261.28;5099723;28;20027;-76
2022/08/10 10:05:58;;;;;;;5.18;3.25;;;;;;;30.24;69.86;101260.66;5087549;28;20024;-74
2022/08/10 10:09:08;;;;;;;5.65;2.92;;;;;;;30.54;65.91;101252.44;5099888;28;20024;-76
2022/08/10 10:12:11;;;;;;;7.85;3.30;;;;;;;30.57;65.41;101257.56;5099127;28;20034;-74
2022/08/10 10:15:19;;;;;;;5.07;3.05;;;;;;;30.79;63.96;101251.06;5098483;28;20039;-75
2022/08/10 10:18:41;;;;;;;3.72;2.97;;;;;;;30.67;61.79;101247.63;5099069;27;20028;-75
2022/08/10 10:21:40;;;;;;;4.15;2.78;;;;;;;30.69;62.60;101251.06;5098210;28;20023;-75
2022/08/10 10:24:39;;;;;;;3.63;2.70;;;;;;;30.65;65.20;101255.00;5081679;28;20081;-75
2022/08/10 10:27:35;;;;;;;5.15;3.10;;;;;;;30.14;64.87;101269.75;5097696;28;20055;-77
2022/08/10 10:30:22;;;;;;;5.15;2.92;;;;;;;29.80;65.89;101249.38;5083014;28;20020;-77
2022/08/10 10:33:14;;;;;;;4.90;2.85;;;;;;;30.72;63.61;101234.53;5097395;28;20031;-75
2022/08/10 10:36:01;;;;;;;4.95;2.50;;;;;;;29.28;67.16;101236.88;5097569;28;20419;-79
2022/08/10 10:38:48;;;;;;;8.75;3.40;;;;;;;29.83;66.34;101222.09;5097082;28;20024;-75
2022/08/10 10:42:20;;;;;;;5.10;2.90;;;;;;;30.18;64.68;101234.16;5097015;28;20028;-74
2022/08/10 10:45:34;;;;;;;8.13;3.38;;;;;;;30.77;62.97;101232.25;5093951;28;20083;-74
2022/08/10 10:49:01;;;;;;;5.05;2.97;;;;;;;30.81;59.62;101225.56;5096218;28;20031;-76
2022/08/10 10:52:16;;;;;;;5.00;2.97;;;;;;;31.63;58.20;101220.38;5030908;28;20556;-74
2022/08/10 10:58:47;;;;;;;9.32;2.80;;;;;;;30.14;61.16;101219.22;5096545;28;20023;-76
2022/08/10 11:01:41;;;;;;;10.23;3.22;;;;;;;30.73;60.33;101219.13;5096315;28;20023;-80
2022/08/10 11:04:54;;;;;;;9.13;2.60;;;;;;;30.55;57.87;101226.25;5080665;28;20028;-79
2022/08/10 11:07:55;;;;;;;8.02;2.95;;;;;;;30.29;61.14;101212.41;5096684;28;20070;-74
2022/08/10 11:10:55;;;;;;;7.63;2.67;;;;;;;31.24;56.88;101214.25;5097265;28;20028;-80
2022/08/10 11:13:50;;;;;;;6.28;2.70;;;;;;;31.57;54.56;101216.41;5083098;28;20016;-75
2022/08/10 11:16:43;;;;;;;9.27;5.28;;;;;;;31.36;55.63;101213.09;5097457;28;20016;-76
2022/08/10 11:19:44;;;;;;;9.25;6.60;;;;;;;30.92;56.46;101222.72;5097216;28;20081;-76
2022/08/10 11:22:43;;;;;;;11.45;4.90;;;;;;;31.84;53.43;101212.91;5097796;28;20035;-75
2022/08/10 11:25:35;;;;;;;6.72;2.90;;;;;;;31.64;52.62;101208.53;5095228;28;20028;-75
2022/08/10 11:28:32;;;;;;;3.78;2.60;;;;;;;31.63;51.78;101205.00;5098172;28;20027;-75
2022/08/10 11:31:32;;;;;;;8.18;2.53;;;;;;;30.97;52.84;101203.31;5096093;28;20020;-76
2022/08/10 11:34:41;;;;;;;8.60;2.80;;;;;;;31.73;52.23;101208.50;5081781;28;20035;-75
2022/08/10 11:37:40;;;;;;;5.70;2.72;;;;;;;31.16;52.02;101200.56;5080965;28;20031;-76
2022/08/10 11:40:34;;;;;;;3.25;2.83;;;;;;;31.48;52.64;101192.06;5079979;28;20041;-75
2022/08/10 11:43:25;;;;;;;4.32;3.00;;;;;;;31.69;51.61;101200.84;5096141;28;20030;-76
2022/08/10 11:46:21;;;;;;;8.60;3.17;;;;;;;31.73;51.46;101194.94;5095065;28;20020;-75
2022/08/10 11:49:27;;;;;;;4.75;3.28;;;;;;;31.57;52.88;101183.91;5080827;28;20043;-74
2022/08/10 11:52:18;;;;;;;4.43;3.00;;;;;;;32.03;51.47;101177.56;5093300;28;20020;-76
2022/08/10 11:55:17;;;;;;;6.00;3.00;;;;;;;32.70;50.69;101176.03;5094663;28;20058;-75
2022/08/10 12:01:16;;;;;;;5.18;3.35;;;;;;;31.28;52.77;101173.22;5095169;28;20036;-77
2022/08/10 12:04:06;;;;;;;8.10;3.38;;;;;;;30.95;53.77;101179.09;5095276;28;20028;-74
2022/08/10 12:06:53;;;;;;;7.45;3.50;;;;;;;31.25;54.54;101176.19;5080527;28;20093;-75
2022/08/10 12:09:41;;;;;;;6.05;3.30;;;;;;;31.71;53.90;101169.88;5095608;28;20028;-74
2022/08/10 12:12:32;;;;;;;6.15;3.45;;;;;;;32.09;53.38;101171.50;5095436;28;20024;-75
2022/08/10 12:15:26;;;;;;;6.25;3.60;;;;;;;31.95;53.76;101166.63;5095231;28;20473;-75
2022/08/10 12:18:23;;;;;;;7.70;3.50;;;;;;;31.06;56.32;101159.97;5095274;28;20020;-75
2022/08/10 12:21:14;;;;;;;8.52;3.78;;;;;;;31.63;55.79;101168.91;5095029;28;20448;-74
2022/08/10 12:24:22;;;;;;;8.07;3.60;;;;;;;31.08;56.26;101158.00;5079690;28;20020;-75
2022/08/10 12:27:13;;;;;;;6.97;3.50;;;;;;;31.25;55.66;101162.66;5094988;28;20068;-74
2022/08/10 12:30:09;;;;;;;7.88;3.40;;;;;;;31.47;56.91;101160.56;5080610;28;20036;-74
2022/08/10 12:33:19;;;;;;;6.28;3.80;;;;;;;31.43;57.19;101160.84;5095106;28;20028;-75
2022/08/10 12:36:14;;;;;;;7.47;3.70;;;;;;;31.58;55.41;101165.81;5080063;28;20046;-75
2022/08/10 12:39:06;;;;;;;8.75;3.90;;;;;;;32.03;55.28;101150.44;5094973;28;20047;-74
2022/08/10 12:41:52;;;;;;;7.53;3.70;;;;;;;31.70;55.32;101151.88;5094953;28;20340;-75
2022/08/10 12:44:47;;;;;;;10.50;3.80;;;;;;;31.60;55.32;101153.81;5094910;28;20050;-79
2022/08/10 12:48:00;;;;;;;7.03;3.85;;;;;;;31.31;56.35;101153.09;5095269;28;20066;-74
2022/08/10 12:50:52;;;;;;;4.68;3.85;;;;;;;30.94;57.56;101153.03;5101395;28;20012;-77
2022/08/10 12:54:06;;;;;;;5.10;3.70;;;;;;;31.33;57.87;101151.94;5100511;28;20044;-75
2022/08/10 12:57:21;;;;;;;7.55;4.10;;;;;;;31.75;54.12;101155.00;5099334;28;20085;-75
2022/08/10 13:00:07;;;;;;;6.35;4.10;;;;;;;31.35;55.93;101149.91;5099266;28;20038;-76
2022/08/10 13:02:55;;;;;;;4.90;3.63;;;;;;;31.40;53.78;101141.34;5098993;28;20016;-75
2022/08/10 13:05:42;;;;;;;7.20;4.00;;;;;;;31.10;55.99;101142.44;5097259;28;20039;-74
2022/08/10 13:11:41;;;;;;;6.82;4.20;;;;;;;31.59;53.74;101132.28;5099111;28;20055;-74
2022/08/10 13:14:41;;;;;;;9.40;3.53;;;;;;;31.10;53.96;101131.59;5088283;28;20020;-74
2022/08/10 13:17:31;;;;;;;4.82;3.50;;;;;;;31.17;53.23;101130.03;5099074;28;20038;-74
2022/08/10 13:20:25;;;;;;;7.70;3.38;;;;;;;31.75;54.11;101122.50;5083514;28;20028;-76
2022/08/10 13:23:14;;;;;;;6.63;3.50;;;;;;;32.03;51.37;101118.75;5097890;28;20020;-77
2022/08/10 13:26:02;;;;;;;6.72;3.47;;;;;;;32.15;51.10;101117.53;5098219;28;20419;-75
2022/08/10 13:28:53;;;;;;;6.10;4.03;;;;;;;30.86;53.59;101116.88;5098269;28;20085;-75
2022/08/10 13:31:42;;;;;;;6.63;3.50;;;;;;;30.46;56.64;101113.50;5098755;27;20060;-74